Time;durP1;ratioP1;P1;durP2;ratioP2;P2;SDS_P1;SDS_P2;PMS_P1;PMS_P2;Temp;Humidity;BMP_temperature;BMP_pressure;BME280_temperature;BME280_humidity;BME280_pressure;Samples;Min_cycle;Max_cycle;Signal;HPM_P1;HPM_P2
2022/12/29 00:00:55;;;;;;;8.43;2.30;;;;;;;7.39;100.00;96684.63;4963058;29;20066;-87
2022/12/29 00:03:22;;;;;;;6.05;2.33;;;;;;;7.26;100.00;96678.88;4982622;28;20063;-86
2022/12/29 00:05:57;;;;;;;8.82;2.55;;;;;;;7.14;100.00;96678.19;4963495;28;20059;-87
2022/12/29 00:08:39;;;;;;;8.15;3.17;;;;;;;7.17;100.00;96674.47;4963549;28;20051;-86
2022/12/29 00:11:08;;;;;;;5.47;1.92;;;;;;;7.34;100.00;96688.59;4957300;28;20059;-87
2022/12/29 00:16:20;;;;;;;6.22;2.10;;;;;;;7.06;100.00;96657.22;4965876;28;20102;-87
2022/12/29 00:18:49;;;;;;;4.05;2.10;;;;;;;7.10;100.00;96653.41;4978623;28;20489;-86
2022/12/29 00:35:31;;;;;;;4.18;1.90;;;;;;;7.04;100.00;96705.97;4962519;28;20060;-87
2022/12/29 00:46:20;;;;;;;3.15;1.20;;;;;;;6.79;100.00;96626.69;4963396;29;20054;-87
2022/12/29 00:51:32;;;;;;;5.30;1.58;;;;;;;7.14;100.00;96693.78;4966115;29;20063;-86
2022/12/29 00:53:59;;;;;;;4.50;1.55;;;;;;;7.11;100.00;96698.44;4979255;28;20043;-86
2022/12/29 00:56:26;;;;;;;2.40;1.20;;;;;;;6.83;100.00;96660.09;4963675;29;20065;-87
2022/12/29 00:58:53;;;;;;;1.98;1.17;;;;;;;6.84;100.00;96655.69;4964564;28;20055;-86
2022/12/29 01:01:20;;;;;;;2.55;1.25;;;;;;;6.84;100.00;96664.31;4961388;28;20061;-86
2022/12/29 01:03:47;;;;;;;4.25;1.42;;;;;;;6.87;100.00;96672.81;4964315;28;20055;-87
2022/12/29 01:06:14;;;;;;;2.35;1.17;;;;;;;7.02;100.00;96679.25;4963916;28;20047;-86
2022/12/29 01:08:41;;;;;;;2.20;1.05;;;;;;;6.89;100.00;96648.31;4964529;29;20044;-87
2022/12/29 01:11:10;;;;;;;2.42;1.10;;;;;;;6.74;100.00;96629.66;4962586;28;20059;-87
2022/12/29 01:13:38;;;;;;;2.67;1.10;;;;;;;6.75;100.00;96614.91;4969071;28;20051;-87
2022/12/29 01:16:06;;;;;;;6.07;1.35;;;;;;;6.72;100.00;96625.56;4978509;28;20046;-87
2022/12/29 01:18:33;;;;;;;3.53;1.40;;;;;;;6.63;100.00;96601.22;4978404;28;20470;-86
2022/12/29 01:21:03;;;;;;;4.20;1.25;;;;;;;7.12;100.00;96687.06;4962571;28;20047;-86
2022/12/29 01:23:29;;;;;;;3.17;1.30;;;;;;;6.88;100.00;96656.25;4961307;29;20385;-86
2022/12/29 01:25:57;;;;;;;1.40;1.02;;;;;;;6.97;100.00;96673.66;4962546;28;20062;-86
2022/12/29 01:28:24;;;;;;;2.65;1.00;;;;;;;6.70;100.00;96666.47;4962182;28;20055;-86
2022/12/29 01:30:52;;;;;;;1.98;1.08;;;;;;;6.57;100.00;96667.53;4969416;28;20129;-85
2022/12/29 01:33:18;;;;;;;2.35;1.10;;;;;;;6.76;100.00;96679.75;4966730;28;20366;-85
2022/12/29 01:35:46;;;;;;;2.92;1.20;;;;;;;6.44;100.00;96644.38;4948004;29;20480;-84
2022/12/29 01:38:12;;;;;;;3.05;1.30;;;;;;;6.56;100.00;96678.06;4962834;28;20047;-85
2022/12/29 01:40:44;;;;;;;1.83;1.00;;;;;;;6.49;100.00;96656.97;4971383;28;20118;-85
2022/12/29 01:43:14;;;;;;;2.20;1.02;;;;;;;6.72;100.00;96685.38;4964796;28;20063;-85
2022/12/29 01:45:54;;;;;;;2.55;1.10;;;;;;;6.38;100.00;96650.09;4960797;28;20058;-85
2022/12/29 01:48:21;;;;;;;2.60;1.20;;;;;;;6.34;100.00;96658.28;4949929;28;20056;-86
2022/12/29 01:50:51;;;;;;;2.10;1.10;;;;;;;6.03;100.00;96604.56;4957980;28;20047;-86
2022/12/29 01:53:24;;;;;;;2.22;1.02;;;;;;;6.30;100.00;96654.31;4948123;28;20063;-86
2022/12/29 01:55:59;;;;;;;2.63;1.35;;;;;;;6.36;100.00;96664.19;4960563;28;20047;-85
2022/12/29 01:58:30;;;;;;;1.58;1.10;;;;;;;6.47;100.00;96688.28;4962322;28;20059;-86
2022/12/29 02:00:57;;;;;;;2.95;1.20;;;;;;;6.02;100.00;96631.50;4966472;28;20059;-86
2022/12/29 02:03:26;;;;;;;2.30;1.20;;;;;;;6.27;100.00;96702.97;4957319;29;20488;-86
2022/12/29 02:06:02;;;;;;;2.92;1.33;;;;;;;5.87;100.00;96649.16;4954749;29;20205;-87
2022/12/29 02:08:29;;;;;;;1.98;1.10;;;;;;;6.17;100.00;96698.69;4949054;29;20476;-84
2022/12/29 02:10:59;;;;;;;2.05;1.20;;;;;;;6.07;100.00;96681.28;4961457;28;20070;-85
2022/12/29 02:13:30;;;;;;;3.72;1.05;;;;;;;5.97;100.00;96664.03;4952198;28;20063;-86
2022/12/29 02:16:03;;;;;;;2.50;1.20;;;;;;;6.23;100.00;96696.41;4965333;29;20058;-85
2022/12/29 02:19:13;;;;;;;3.00;1.10;;;;;;;6.33;100.00;96706.81;4964398;29;20071;-85
2022/12/29 02:21:52;;;;;;;2.15;1.00;;;;;;;6.31;100.00;96705.31;4963074;28;20063;-85
2022/12/29 02:24:27;;;;;;;4.45;1.30;;;;;;;6.37;100.00;96702.19;4964154;28;20051;-85
2022/12/29 02:27:14;;;;;;;2.60;1.15;;;;;;;6.22;100.00;96673.97;4975996;28;20048;-85
2022/12/29 02:29:53;;;;;;;1.85;1.13;;;;;;;6.34;100.00;96694.66;4963650;28;20063;-85
2022/12/29 02:32:23;;;;;;;2.40;1.10;;;;;;;6.47;100.00;96719.47;4962828;29;20050;-84
2022/12/29 02:34:53;;;;;;;2.33;1.15;;;;;;;6.51;100.00;96722.63;4962874;28;20061;-87
2022/12/29 02:37:29;;;;;;;1.80;1.00;;;;;;;6.30;100.00;96677.69;4963107;28;20063;-86
2022/12/29 02:40:29;;;;;;;3.63;1.20;;;;;;;6.65;100.00;96739.66;4964175;28;20059;-85
2022/12/29 02:43:06;;;;;;;2.47;1.30;;;;;;;6.17;100.00;96678.72;4955348;29;20087;-85
2022/12/29 02:45:45;;;;;;;3.58;1.30;;;;;;;6.65;100.00;96747.44;4964179;28;20055;-85
2022/12/29 02:48:21;;;;;;;2.63;1.20;;;;;;;6.41;100.00;96708.75;4961331;28;20051;-85
2022/12/29 02:50:56;;;;;;;3.42;1.48;;;;;;;6.67;100.00;96753.34;4962989;28;20054;-85
2022/12/29 02:56:10;;;;;;;1.75;1.00;;;;;;;6.50;100.00;96744.38;4949920;29;20063;-86
2022/12/29 02:58:37;;;;;;;1.83;1.05;;;;;;;6.27;100.00;96721.16;4961976;29;20055;-86
2022/12/29 03:01:24;;;;;;;2.10;1.00;;;;;;;6.58;100.00;96769.72;4961819;29;20138;-85
2022/12/29 03:04:32;;;;;;;3.17;1.30;;;;;;;6.53;100.00;96767.50;4961698;29;20059;-86
2022/12/29 03:07:23;;;;;;;1.38;1.00;;;;;;;6.10;100.00;96723.53;4959000;28;20083;-86
2022/12/29 03:10:04;;;;;;;2.70;1.10;;;;;;;6.31;100.00;96747.69;4961575;28;20131;-86
2022/12/29 03:16:04;;;;;;;1.67;1.13;;;;;;;6.38;100.00;96789.59;4970586;28;20078;-85
2022/12/29 03:18:37;;;;;;;2.35;1.20;;;;;;;6.23;100.00;96807.25;4964140;28;20727;-84
2022/12/29 03:22:26;;;;;;;2.97;1.20;;;;;;;5.89;100.00;96761.47;4967362;28;20058;-85
2022/12/29 03:24:22;;;;;;;1.83;1.00;;;;;;;5.82;100.00;96760.34;4961427;28;20047;-85
2022/12/29 03:26:52;;;;;;;1.98;1.00;;;;;;;6.05;100.00;96783.63;4967130;28;20055;-86
2022/12/29 03:29:20;;;;;;;1.35;0.90;;;;;;;6.11;100.00;96796.13;4963951;28;20052;-86
2022/12/29 03:31:49;;;;;;;1.10;0.90;;;;;;;5.91;100.00;96815.88;4947381;28;20107;-85
2022/12/29 03:34:20;;;;;;;1.98;0.90;;;;;;;5.72;100.00;96811.38;4953499;29;20060;-86
2022/12/29 03:37:04;;;;;;;0.80;0.80;;;;;;;5.76;100.00;96810.16;4956196;28;20062;-86
2022/12/29 03:39:33;;;;;;;1.20;1.00;;;;;;;5.58;100.00;96783.94;4960992;28;20501;-85
2022/12/29 03:42:04;;;;;;;0.80;0.80;;;;;;;5.80;100.00;96823.72;4961077;29;20158;-85
2022/12/29 03:44:41;;;;;;;0.80;0.80;;;;;;;5.32;100.00;96786.81;4959999;29;20047;-86
2022/12/29 03:47:10;;;;;;;0.70;0.70;;;;;;;5.73;100.00;96840.75;4962509;28;20051;-85
2022/12/29 03:49:37;;;;;;;0.95;0.85;;;;;;;5.11;100.00;96760.81;4960315;29;20648;-85
2022/12/29 03:52:04;;;;;;;1.10;0.90;;;;;;;5.40;100.00;96811.31;4960672;29;20055;-85
2022/12/29 03:54:32;;;;;;;1.23;0.98;;;;;;;5.68;100.00;96860.09;4959485;29;20047;-85
2022/12/29 03:56:59;;;;;;;1.00;0.80;;;;;;;5.46;100.00;96821.22;4961367;28;20493;-85
2022/12/29 03:59:26;;;;;;;1.20;0.80;;;;;;;5.49;100.00;96847.75;4961490;29;20261;-85
2022/12/29 04:01:53;;;;;;;1.00;0.90;;;;;;;5.54;100.00;96875.09;4959992;29;20063;-84
2022/12/29 04:04:20;;;;;;;1.00;0.90;;;;;;;5.36;100.00;96865.22;4959953;28;20496;-85
2022/12/29 04:06:46;;;;;;;1.00;0.90;;;;;;;5.27;100.00;96869.34;4966377;28;20055;-85
2022/12/29 04:09:13;;;;;;;1.00;0.90;;;;;;;5.03;100.00;96843.56;4969362;28;20059;-85
2022/12/29 04:11:40;;;;;;;1.35;0.90;;;;;;;5.16;100.00;96853.81;4958443;29;20054;-85
2022/12/29 04:14:07;;;;;;;1.00;0.90;;;;;;;4.95;100.00;96835.53;4951162;29;20059;-85
2022/12/29 04:16:35;;;;;;;1.75;1.00;;;;;;;5.65;100.00;96907.06;4955492;29;20078;-85
2022/12/29 04:19:02;;;;;;;0.82;0.82;;;;;;;5.29;100.00;96857.13;4969168;28;20114;-85
2022/12/29 04:21:29;;;;;;;1.00;0.90;;;;;;;5.32;100.00;96869.81;4965493;28;20047;-86
2022/12/29 04:23:56;;;;;;;1.00;0.90;;;;;;;5.53;100.00;96892.44;4973966;28;20065;-84
2022/12/29 04:26:23;;;;;;;1.02;0.90;;;;;;;5.66;100.00;96908.69;4971768;28;20051;-84
2022/12/29 04:28:50;;;;;;;1.00;0.90;;;;;;;5.39;100.00;96872.75;4972197;28;20047;-84
2022/12/29 04:31:16;;;;;;;1.75;0.90;;;;;;;5.68;100.00;96950.09;4946755;29;20509;-85
2022/12/29 04:33:44;;;;;;;0.90;0.90;;;;;;;5.54;100.00;96938.19;4953755;29;20063;-84
2022/12/29 04:36:11;;;;;;;1.10;0.90;;;;;;;5.26;100.00;96901.44;4959898;28;20406;-86
2022/12/29 04:38:37;;;;;;;1.35;1.00;;;;;;;5.47;100.00;96947.41;4958674;28;20763;-85
2022/12/29 04:41:04;;;;;;;0.90;0.77;;;;;;;5.47;100.00;96945.66;4976857;28;20054;-85
2022/12/29 04:43:31;;;;;;;1.00;0.80;;;;;;;5.41;100.00;96946.09;4974736;28;20057;-85
2022/12/29 04:45:58;;;;;;;1.00;0.90;;;;;;;5.50;100.00;96983.50;4962305;28;20070;-85
2022/12/29 04:48:25;;;;;;;0.98;0.90;;;;;;;5.16;100.00;96923.81;4960378;28;20342;-85
2022/12/29 04:50:52;;;;;;;1.00;0.90;;;;;;;5.29;100.00;96947.03;4958766;29;20043;-86
2022/12/29 04:53:19;;;;;;;0.80;0.80;;;;;;;5.48;100.00;96967.22;4960480;28;20058;-85
2022/12/29 04:55:52;;;;;;;1.20;1.00;;;;;;;5.56;100.00;97003.78;4959283;28;20047;-85
2022/12/29 04:58:19;;;;;;;;;;;;;;;5.38;100.00;97008.59;4961910;28;20062;-84
2022/12/29 05:00:49;;;;;;;1.00;0.90;;;;;;;5.09;100.00;96945.97;4958836;29;20347;-84
2022/12/29 05:03:16;;;;;;;1.00;0.90;;;;;;;5.02;100.00;96974.13;4961425;28;20051;-86
2022/12/29 05:05:44;;;;;;;1.10;0.90;;;;;;;4.91;100.00;96990.50;4960366;28;20051;-85
2022/12/29 05:08:10;;;;;;;0.98;0.90;;;;;;;4.83;100.00;96974.66;4957529;28;20061;-85
2022/12/29 05:10:37;;;;;;;0.80;0.80;;;;;;;4.71;100.00;96941.88;4958694;28;20047;-85
2022/12/29 05:13:04;;;;;;;1.00;0.90;;;;;;;5.12;100.00;97014.00;4974116;28;20046;-85
2022/12/29 05:15:31;;;;;;;1.17;0.90;;;;;;;4.87;100.00;97009.81;4961359;28;20055;-84
2022/12/29 05:17:58;;;;;;;1.25;0.82;;;;;;;5.12;100.00;97020.94;4947252;28;20398;-85
2022/12/29 05:20:25;;;;;;;1.10;1.00;;;;;;;5.06;100.00;97027.41;4947065;29;20047;-86
2022/12/29 05:22:52;;;;;;;1.00;0.82;;;;;;;4.90;100.00;97001.78;4961967;28;20047;-85
2022/12/29 05:25:19;;;;;;;1.00;0.90;;;;;;;5.01;100.00;97007.94;4957577;29;20130;-85
2022/12/29 05:27:46;;;;;;;1.48;1.00;;;;;;;4.98;100.00;97021.97;4953159;29;20059;-86
2022/12/29 05:30:13;;;;;;;0.80;0.80;;;;;;;5.10;100.00;97041.81;4961664;28;20047;-86
2022/12/29 05:32:39;;;;;;;1.00;0.90;;;;;;;4.95;100.00;97001.47;4963056;28;20138;-88
2022/12/29 05:35:07;;;;;;;1.00;0.90;;;;;;;5.01;100.00;97026.94;4956439;29;20410;-85
2022/12/29 05:37:34;;;;;;;0.93;0.90;;;;;;;5.22;100.00;97042.63;4964551;29;20047;-84
2022/12/29 05:40:00;;;;;;;1.48;1.00;;;;;;;5.12;100.00;97042.53;4954072;28;20043;-85
2022/12/29 05:42:27;;;;;;;0.80;0.80;;;;;;;4.94;100.00;97023.97;4958746;29;20054;-85
2022/12/29 05:44:54;;;;;;;0.70;0.70;;;;;;;4.97;100.00;97029.88;4958264;28;20089;-83
2022/12/29 05:47:21;;;;;;;1.10;0.80;;;;;;;4.99;100.00;97067.69;4978591;28;20648;-83
2022/12/29 05:49:47;;;;;;;0.70;0.70;;;;;;;5.30;100.00;97088.78;4983414;28;20070;-84
2022/12/29 05:52:14;;;;;;;0.80;0.80;;;;;;;5.17;100.00;97064.69;4958165;28;20103;-86
2022/12/29 05:54:44;;;;;;;0.90;0.80;;;;;;;5.39;100.00;97102.84;4973522;29;20073;-87
2022/12/29 05:57:13;;;;;;;1.00;0.88;;;;;;;5.34;100.00;97087.59;4974330;28;20035;-85
2022/12/29 05:59:40;;;;;;;1.10;1.00;;;;;;;4.94;100.00;97083.59;4981097;28;20048;-86
2022/12/29 06:02:07;;;;;;;0.93;0.82;;;;;;;5.23;100.00;97103.97;4968041;28;20055;-85
2022/12/29 06:04:34;;;;;;;0.90;0.80;;;;;;;5.07;100.00;97072.31;4971163;29;20047;-85
2022/12/29 06:07:01;;;;;;;1.00;0.90;;;;;;;5.30;100.00;97094.78;4966137;28;20474;-85
2022/12/29 06:09:27;;;;;;;1.00;0.90;;;;;;;5.13;100.00;97084.81;4970656;28;20055;-85
2022/12/29 06:11:54;;;;;;;0.90;0.80;;;;;;;5.39;100.00;97126.19;4960917;28;20063;-85
2022/12/29 06:14:21;;;;;;;0.80;0.80;;;;;;;5.27;100.00;97126.13;4979868;28;20057;-86
2022/12/29 06:16:48;;;;;;;0.73;0.73;;;;;;;5.23;100.00;97131.66;4972053;28;20058;-85
2022/12/29 06:19:15;;;;;;;0.90;0.90;;;;;;;4.98;100.00;97101.53;4960899;28;20051;-85
2022/12/29 06:21:42;;;;;;;0.80;0.80;;;;;;;5.00;100.00;97136.75;4968607;28;20130;-85
2022/12/29 06:24:10;;;;;;;1.00;0.90;;;;;;;5.03;100.00;97122.72;4967016;28;20055;-84
2022/12/29 06:26:37;;;;;;;1.15;0.80;;;;;;;5.05;100.00;97133.84;4979607;28;20047;-84
2022/12/29 06:29:04;;;;;;;0.93;0.82;;;;;;;5.01;100.00;97141.03;4965850;29;20058;-85
2022/12/29 06:31:31;;;;;;;1.00;0.90;;;;;;;5.17;100.00;97176.19;4964723;29;20563;-86
2022/12/29 06:33:58;;;;;;;1.00;0.90;;;;;;;5.04;100.00;97186.63;4960129;29;20062;-83
2022/12/29 06:36:32;;;;;;;1.00;0.90;;;;;;;5.21;100.00;97208.75;4950136;29;20083;-86
2022/12/29 06:38:58;;;;;;;0.80;0.80;;;;;;;4.97;100.00;97186.22;4966141;28;20061;-84
2022/12/29 06:41:25;;;;;;;0.80;0.80;;;;;;;5.19;100.00;97214.06;4968807;28;20058;-85
2022/12/29 06:43:57;;;;;;;1.20;1.00;;;;;;;4.88;100.00;97199.84;4953313;28;20113;-85
2022/12/29 06:46:24;;;;;;;1.00;0.90;;;;;;;5.06;100.00;97224.47;4964465;28;21014;-85
2022/12/29 06:48:51;;;;;;;1.17;1.02;;;;;;;5.02;100.00;97230.81;4981942;28;20115;-86
2022/12/29 06:51:18;;;;;;;2.40;0.90;;;;;;;4.99;100.00;97237.97;4964761;28;20047;-86
2022/12/29 06:53:45;;;;;;;1.05;0.95;;;;;;;5.05;100.00;97264.31;4967258;28;20044;-86
2022/12/29 06:56:12;;;;;;;1.05;0.90;;;;;;;5.19;100.00;97276.31;4960976;28;20710;-84
2022/12/29 06:58:39;;;;;;;1.00;0.90;;;;;;;4.86;100.00;97231.06;4972620;28;20044;-85
2022/12/29 07:01:05;;;;;;;0.93;0.90;;;;;;;4.95;100.00;97277.06;4958893;29;20051;-85
2022/12/29 07:03:32;;;;;;;1.10;0.80;;;;;;;4.87;100.00;97252.63;4952213;29;20071;-87
2022/12/29 07:05:59;;;;;;;1.30;1.17;;;;;;;5.24;100.00;97309.69;4950975;29;20819;-83
2022/12/29 07:08:26;;;;;;;1.00;0.90;;;;;;;4.84;100.00;97271.81;4961614;28;20051;-84
2022/12/29 07:10:53;;;;;;;1.48;1.00;;;;;;;4.68;100.00;97245.31;4961914;28;20055;-84
2022/12/29 07:13:20;;;;;;;1.20;0.95;;;;;;;4.80;100.00;97264.34;4967746;28;20058;-85
2022/12/29 07:15:46;;;;;;;1.30;1.00;;;;;;;4.71;100.00;97271.84;4965555;28;20047;-85
2022/12/29 07:18:13;;;;;;;1.00;0.90;;;;;;;4.69;100.00;97253.00;4959060;28;20050;-85
2022/12/29 07:20:40;;;;;;;1.23;1.00;;;;;;;5.09;100.00;97327.16;4961445;28;20067;-84
2022/12/29 07:23:07;;;;;;;1.52;1.02;;;;;;;4.69;100.00;97278.06;4942228;28;20051;-84
2022/12/29 07:25:35;;;;;;;1.75;1.10;;;;;;;4.80;100.00;97292.88;4948248;28;20047;-84
2022/12/29 07:28:03;;;;;;;2.08;1.00;;;;;;;4.43;100.00;97239.25;4959636;28;20058;-85
2022/12/29 07:30:30;;;;;;;2.85;1.10;;;;;;;4.15;100.00;97201.44;4959431;28;20051;-85
2022/12/29 07:32:57;;;;;;;2.20;1.08;;;;;;;4.47;100.00;97258.00;4945386;28;20055;-84
2022/12/29 07:35:24;;;;;;;1.10;1.00;;;;;;;4.40;100.00;97249.78;4982454;28;20052;-85
2022/12/29 07:37:50;;;;;;;1.08;0.93;;;;;;;4.43;100.00;97259.97;4952406;28;20114;-84
2022/12/29 07:40:17;;;;;;;1.60;1.00;;;;;;;4.65;100.00;97300.75;4954749;28;20052;-84
2022/12/29 07:42:44;;;;;;;0.80;0.80;;;;;;;4.72;100.00;97307.19;4948809;29;20055;-83
2022/12/29 07:45:11;;;;;;;1.88;1.00;;;;;;;4.53;100.00;97283.47;4958008;28;20058;-83
2022/12/29 07:47:38;;;;;;;3.05;0.90;;;;;;;4.62;100.00;97305.31;4949512;28;20043;-84
2022/12/29 07:50:05;;;;;;;1.10;0.90;;;;;;;4.68;100.00;97312.69;4952359;29;20050;-84
2022/12/29 07:52:32;;;;;;;1.10;0.90;;;;;;;4.56;100.00;97314.34;4973215;28;20517;-84
2022/12/29 07:54:58;;;;;;;1.30;1.10;;;;;;;4.44;100.00;97313.41;4958536;28;20379;-84
2022/12/29 07:57:25;;;;;;;2.75;1.13;;;;;;;4.52;100.00;97333.63;4957883;29;20051;-84
2022/12/29 07:59:57;;;;;;;1.25;0.90;;;;;;;4.68;100.00;97367.94;4958680;29;20054;-84
2022/12/29 08:02:26;;;;;;;1.95;0.90;;;;;;;4.64;100.00;97376.00;4959364;28;20051;-85
2022/12/29 08:04:53;;;;;;;1.05;0.90;;;;;;;4.44;100.00;97365.22;4955943;28;20411;-85
2022/12/29 08:07:20;;;;;;;1.08;0.98;;;;;;;4.48;100.00;97376.22;4966353;28;20102;-86
2022/12/29 08:09:47;;;;;;;2.55;1.00;;;;;;;4.19;100.00;97322.00;4965011;28;20046;-85
2022/12/29 08:12:13;;;;;;;1.10;0.95;;;;;;;4.33;100.00;97375.47;4960474;28;20058;-85
2022/12/29 08:14:40;;;;;;;1.23;0.98;;;;;;;4.44;100.00;97401.47;4959015;28;20118;-85
2022/12/29 08:17:07;;;;;;;1.95;1.00;;;;;;;4.33;100.00;97389.25;4946628;28;20056;-85
2022/12/29 08:19:34;;;;;;;1.08;0.90;;;;;;;4.30;100.00;97386.03;4960009;28;20060;-85
2022/12/29 08:22:01;;;;;;;1.40;1.00;;;;;;;4.28;100.00;97380.94;4947342;28;20054;-85
2022/12/29 08:24:28;;;;;;;2.58;1.10;;;;;;;4.50;100.00;97427.00;4964360;28;20062;-85
2022/12/29 08:26:55;;;;;;;3.35;1.05;;;;;;;4.74;100.00;97455.63;4962960;28;20062;-86
2022/12/29 08:29:21;;;;;;;1.25;1.00;;;;;;;4.43;100.00;97412.78;4958146;28;20047;-84
2022/12/29 08:31:49;;;;;;;1.75;1.00;;;;;;;4.43;100.00;97417.16;4955661;29;20050;-85
2022/12/29 08:34:19;;;;;;;2.15;0.98;;;;;;;4.24;100.00;97392.44;4957942;28;20062;-83
2022/12/29 08:36:45;;;;;;;1.10;1.00;;;;;;;3.94;100.00;97349.47;4966390;28;20051;-84
2022/12/29 08:39:12;;;;;;;1.45;1.00;;;;;;;4.10;100.00;97400.28;4944833;29;20051;-85
2022/12/29 08:41:39;;;;;;;1.73;1.27;;;;;;;4.36;100.00;97448.63;4956852;28;20397;-82
2022/12/29 08:44:06;;;;;;;3.28;1.10;;;;;;;4.24;100.00;97438.22;4953386;29;20052;-84
2022/12/29 08:46:33;;;;;;;2.30;1.10;;;;;;;4.10;100.00;97418.41;4963251;28;20078;-85
2022/12/29 08:49:00;;;;;;;2.13;1.20;;;;;;;3.80;100.00;97378.84;4951102;29;20127;-83
2022/12/29 08:51:26;;;;;;;1.50;1.10;;;;;;;4.22;100.00;97453.88;4964427;28;20038;-87
2022/12/29 08:53:53;;;;;;;1.80;1.02;;;;;;;4.13;100.00;97444.94;4986047;28;20067;-83
2022/12/29 08:56:20;;;;;;;1.80;1.17;;;;;;;4.28;100.00;97483.72;4953780;29;20051;-87
2022/12/29 08:58:47;;;;;;;3.38;1.20;;;;;;;4.25;100.00;97481.31;4952769;28;20051;-83
2022/12/29 09:01:14;;;;;;;1.42;1.10;;;;;;;4.09;100.00;97471.09;4954029;28;20051;-84
2022/12/29 09:03:41;;;;;;;5.07;1.20;;;;;;;3.96;100.00;97471.06;4967195;28;20420;-84
2022/12/29 09:06:28;;;;;;;2.47;1.10;;;;;;;3.85;100.00;97448.44;4961338;28;20622;-83
2022/12/29 09:09:00;;;;;;;1.52;1.20;;;;;;;4.08;100.00;97480.63;4952560;28;20110;-84
2022/12/29 09:11:27;;;;;;;2.10;1.10;;;;;;;4.33;100.00;97526.50;4957912;28;20445;-85
2022/12/29 09:13:54;;;;;;;2.13;1.20;;;;;;;4.49;100.00;97557.47;4959966;28;20047;-85
2022/12/29 09:16:23;;;;;;;1.42;1.10;;;;;;;4.35;100.00;97542.78;4958632;28;20035;-85
2022/12/29 09:18:50;;;;;;;1.90;1.10;;;;;;;4.50;100.00;97563.50;4954810;29;20048;-85
2022/12/29 09:21:17;;;;;;;2.25;1.20;;;;;;;4.11;100.00;97500.34;4957432;28;20465;-84
2022/12/29 09:23:44;;;;;;;1.27;1.00;;;;;;;4.22;100.00;97512.59;4966568;28;20481;-85
2022/12/29 09:26:11;;;;;;;3.78;1.20;;;;;;;4.00;100.00;97488.03;4962222;28;20061;-86
2022/12/29 09:28:38;;;;;;;3.25;1.00;;;;;;;4.25;100.00;97522.75;4964432;28;20051;-86
2022/12/29 09:31:05;;;;;;;1.67;1.00;;;;;;;4.61;100.00;97581.78;4954086;28;20055;-86
2022/12/29 09:33:34;;;;;;;2.00;1.10;;;;;;;4.24;100.00;97521.94;4959020;29;20054;-86
2022/12/29 09:36:02;;;;;;;1.67;1.05;;;;;;;4.65;100.00;97585.81;4958965;29;20059;-86
2022/12/29 09:38:29;;;;;;;1.88;1.10;;;;;;;4.60;100.00;97581.88;4964971;28;20621;-85
2022/12/29 09:40:59;;;;;;;1.33;1.00;;;;;;;4.47;100.00;97558.50;4971573;28;20050;-85
2022/12/29 09:44:03;;;;;;;2.50;1.25;;;;;;;4.83;100.00;97598.53;4959728;28;20055;-84
2022/12/29 09:46:40;;;;;;;2.42;1.20;;;;;;;4.60;100.00;97535.22;4974482;28;20054;-85
2022/12/29 09:49:07;;;;;;;1.48;0.90;;;;;;;4.92;100.00;97592.75;4972264;28;20051;-84
2022/12/29 09:51:38;;;;;;;1.88;1.00;;;;;;;4.80;100.00;97568.47;4970496;28;20046;-86
2022/12/29 09:54:42;;;;;;;2.17;1.10;;;;;;;4.80;100.00;97596.13;4960851;28;20051;-85
2022/12/29 09:57:38;;;;;;;1.73;1.02;;;;;;;4.79;100.00;97607.44;4961027;28;20047;-85
2022/12/29 10:00:13;;;;;;;2.90;1.10;;;;;;;4.87;100.00;97612.94;4960596;28;20379;-85
2022/12/29 10:03:10;;;;;;;1.52;1.00;;;;;;;4.97;100.00;97608.03;4959972;28;20063;-85
2022/12/29 10:05:46;;;;;;;3.22;0.98;;;;;;;5.03;100.00;97620.56;4952173;29;20055;-84
2022/12/29 10:08:16;;;;;;;1.88;1.10;;;;;;;5.09;100.00;97622.78;4956363;28;20047;-85
2022/12/29 10:11:37;;;;;;;1.40;1.05;;;;;;;5.12;100.00;97623.41;4955989;28;20457;-85
2022/12/29 10:14:28;;;;;;;1.40;0.95;;;;;;;5.23;100.00;97627.09;4937527;29;20063;-86
2022/12/29 10:17:14;;;;;;;1.23;0.90;;;;;;;4.92;100.00;97585.81;4937422;29;20063;-86
2022/12/29 10:20:19;;;;;;;1.25;1.05;;;;;;;5.37;100.00;97639.16;4950941;28;21116;-84
2022/12/29 10:23:18;;;;;;;1.67;1.00;;;;;;;5.46;100.00;97654.09;4968761;28;20054;-84
2022/12/29 10:25:45;;;;;;;1.63;0.93;;;;;;;5.33;100.00;97620.38;4952355;28;20070;-85
2022/12/29 10:28:31;;;;;;;1.98;1.00;;;;;;;5.56;100.00;97657.75;4977390;28;20058;-84
2022/12/29 10:31:00;;;;;;;1.58;0.98;;;;;;;5.35;100.00;97623.69;4960548;28;20055;-85
2022/12/29 10:33:42;;;;;;;1.40;1.00;;;;;;;5.56;100.00;97643.94;4969977;28;20434;-85
2022/12/29 10:36:27;;;;;;;1.98;1.00;;;;;;;5.39;100.00;97611.34;4958541;29;20055;-85
2022/12/29 10:39:15;;;;;;;1.52;1.00;;;;;;;5.93;100.00;97670.84;4960872;28;20387;-85
2022/12/29 10:42:20;;;;;;;1.98;0.95;;;;;;;5.82;100.00;97644.78;4959102;28;20051;-85
2022/12/29 10:44:47;;;;;;;1.98;1.00;;;;;;;5.76;100.00;97635.66;4951943;29;20069;-86
2022/12/29 10:47:22;;;;;;;1.75;1.00;;;;;;;6.05;100.00;97675.25;4947167;28;20478;-85
2022/12/29 10:49:49;;;;;;;2.40;1.10;;;;;;;5.67;100.00;97626.72;4958971;28;20078;-86
2022/12/29 10:52:19;;;;;;;4.50;1.20;;;;;;;5.85;100.00;97654.97;4960699;28;20490;-85
2022/12/29 10:54:46;;;;;;;2.22;1.10;;;;;;;6.07;100.00;97680.34;4959617;29;20557;-84
2022/12/29 10:57:16;;;;;;;2.60;1.25;;;;;;;6.24;100.00;97677.44;4959484;28;20066;-86
2022/12/29 10:59:43;;;;;;;5.32;1.98;;;;;;;5.91;100.00;97649.34;4961388;29;20058;-85
2022/12/29 11:02:09;;;;;;;4.68;1.88;;;;;;;6.13;100.00;97679.13;4958216;29;20409;-85
2022/12/29 11:04:48;;;;;;;2.13;1.20;;;;;;;6.09;100.00;97683.66;4973054;28;20397;-86
2022/12/29 11:07:20;;;;;;;1.65;1.10;;;;;;;5.95;100.00;97631.78;4959353;29;20062;-84
2022/12/29 11:09:53;;;;;;;1.90;1.15;;;;;;;5.84;100.00;97635.97;4954199;28;20055;-85
2022/12/29 11:12:30;;;;;;;4.80;1.30;;;;;;;5.74;100.00;97615.91;4958265;29;20044;-86
2022/12/29 11:15:07;;;;;;;2.65;1.20;;;;;;;6.31;100.00;97690.84;4952815;28;20114;-85
2022/12/29 11:17:49;;;;;;;3.00;1.23;;;;;;;5.95;100.00;97658.63;4955483;28;20532;-87
2022/12/29 11:20:38;;;;;;;1.30;1.07;;;;;;;6.19;100.00;97674.31;4971426;28;20053;-88
2022/12/29 11:23:22;;;;;;;3.67;1.30;;;;;;;5.99;100.00;97660.09;4976455;28;20047;-86
2022/12/29 11:26:28;;;;;;;2.58;1.20;;;;;;;5.84;100.00;97571.06;4949760;29;20052;-87
2022/12/29 11:29:08;;;;;;;2.75;1.25;;;;;;;5.65;100.00;97544.72;4945884;28;20062;-85
2022/12/29 11:31:42;;;;;;;2.95;1.20;;;;;;;6.00;100.00;97622.81;4957794;29;20051;-85
2022/12/29 11:34:26;;;;;;;3.05;1.40;;;;;;;6.34;100.00;97693.22;4959102;28;20051;-86
2022/12/29 11:37:00;;;;;;;2.85;1.40;;;;;;;6.46;100.00;97712.31;4970937;28;20055;-87
2022/12/29 11:39:33;;;;;;;4.43;1.50;;;;;;;6.28;100.00;97719.63;4962696;28;20054;-85
2022/12/29 11:42:02;;;;;;;3.88;1.30;;;;;;;6.12;100.00;97669.66;4958454;28;20409;-87
2022/12/29 11:44:37;;;;;;;3.42;1.48;;;;;;;5.79;100.00;97593.06;4957896;28;20480;-87
2022/12/29 11:47:21;;;;;;;3.45;1.58;;;;;;;6.56;100.00;97707.34;4963082;28;20054;-86
2022/12/29 11:49:55;;;;;;;4.82;1.70;;;;;;;6.54;100.00;97689.25;4966679;28;20138;-85
2022/12/29 11:52:29;;;;;;;5.03;2.15;;;;;;;6.52;100.00;97713.69;4955695;28;20039;-86
2022/12/29 11:54:56;;;;;;;6.03;2.30;;;;;;;6.44;100.00;97676.03;4951403;29;20066;-87
2022/12/29 11:57:25;;;;;;;6.70;2.63;;;;;;;6.35;100.00;97666.28;4951552;28;20059;-87
2022/12/29 11:59:55;;;;;;;8.00;2.20;;;;;;;6.44;100.00;97707.22;4953617;28;20043;-88
2022/12/29 12:02:41;;;;;;;4.18;1.52;;;;;;;6.57;100.00;97719.38;4968629;28;20063;-86
2022/12/29 12:05:30;;;;;;;3.78;1.42;;;;;;;6.59;100.00;97718.34;4957757;28;20473;-86
2022/12/29 12:08:35;;;;;;;4.13;1.65;;;;;;;6.56;100.00;97721.16;4961637;29;20059;-86
2022/12/29 12:11:18;;;;;;;4.20;1.60;;;;;;;6.33;100.00;97675.97;4969141;28;20062;-87
2022/12/29 12:14:06;;;;;;;7.85;1.88;;;;;;;6.64;100.00;97725.84;4959594;29;20055;-86
2022/12/29 12:17:02;;;;;;;5.57;1.85;;;;;;;6.37;100.00;97676.59;4960314;28;20054;-87
2022/12/29 12:19:41;;;;;;;3.58;1.48;;;;;;;6.42;100.00;97697.88;4954882;29;20055;-86
2022/12/29 12:22:19;;;;;;;5.95;1.60;;;;;;;6.65;100.00;97724.88;4948909;28;20059;-86
2022/12/29 12:24:58;;;;;;;4.78;1.45;;;;;;;6.47;100.00;97707.03;4952039;29;20047;-86
2022/12/29 12:27:46;;;;;;;4.13;1.50;;;;;;;6.35;100.00;97710.47;4959706;28;20047;-85
2022/12/29 12:30:19;;;;;;;4.18;1.58;;;;;;;6.53;100.00;97728.34;4959554;28;20070;-86